createdAt,value
2023-02-03T00:01:49.545Z,84.79
2023-02-03T00:04:16.154Z,84.64
2023-02-03T00:06:43.273Z,84.84
2023-02-03T00:09:10.234Z,84.39
2023-02-03T00:11:37.354Z,84.68
2023-02-03T00:14:05.372Z,84.26
2023-02-03T00:16:31.988Z,84.25
2023-02-03T00:18:58.523Z,84.11
2023-02-03T00:21:24.992Z,84.44
2023-02-03T00:23:51.892Z,84.52
2023-02-03T00:26:18.534Z,84.45
2023-02-03T00:28:45.800Z,84.16
2023-02-03T00:31:21.588Z,84.35
2023-02-03T00:33:53.055Z,84.21
2023-02-03T00:36:19.554Z,84.43
2023-02-03T00:38:46.142Z,84.09
2023-02-03T00:41:12.584Z,83.86
2023-02-03T00:43:39.082Z,83.86
2023-02-03T00:46:05.786Z,84.14
2023-02-03T00:48:32.277Z,84.08
2023-02-03T00:50:58.775Z,84.16
2023-02-03T00:53:25.362Z,83.95
2023-02-03T00:55:52.151Z,83.74
2023-02-03T00:58:18.895Z,84.19
2023-02-03T01:00:45.571Z,84.29
2023-02-03T01:03:12.073Z,84.20
2023-02-03T01:05:38.631Z,84.28
2023-02-03T01:08:05.328Z,83.80
2023-02-03T01:10:31.865Z,84.12
2023-02-03T01:12:58.356Z,84.23
2023-02-03T01:15:24.877Z,84.25
2023-02-03T01:17:51.349Z,84.29
2023-02-03T01:20:18.104Z,84.15
2023-02-03T01:22:44.615Z,84.25
2023-02-03T01:25:11.264Z,83.92
2023-02-03T01:27:37.961Z,84.02
2023-02-03T01:30:05.073Z,84.29
2023-02-03T01:32:31.542Z,84.00
2023-02-03T01:34:57.995Z,84.02
2023-02-03T01:37:24.531Z,83.96
2023-02-03T01:39:50.998Z,83.98
2023-02-03T01:42:17.510Z,84.01
2023-02-03T01:44:47.664Z,83.97
2023-02-03T01:47:22.963Z,83.83
2023-02-03T01:49:56.532Z,83.88
2023-02-03T01:52:23.716Z,84.00
2023-02-03T01:54:52.089Z,84.43
2023-02-03T01:57:24.792Z,84.12
2023-02-03T01:59:53.947Z,84.12
2023-02-03T02:02:20.866Z,83.99
2023-02-03T02:05:20.327Z,83.87
2023-02-03T02:07:48.648Z,83.66
2023-02-03T02:10:15.211Z,83.70
2023-02-03T02:12:42.163Z,83.56
2023-02-03T02:15:09.871Z,83.39
2023-02-03T02:17:36.422Z,82.90
2023-02-03T02:20:39.989Z,82.98
2023-02-03T02:23:25.299Z,83.30
2023-02-03T02:26:03.881Z,83.33
2023-02-03T02:28:55.636Z,83.09
2023-02-03T02:31:56.153Z,82.99
2023-02-03T02:34:42.650Z,83.00
2023-02-03T02:37:24.570Z,83.09
2023-02-03T02:39:58.900Z,82.98
2023-02-03T02:42:46.695Z,82.86
2023-02-03T02:45:22.579Z,82.40
2023-02-03T02:47:50.800Z,82.76
2023-02-03T02:53:03.868Z,82.07
2023-02-03T02:55:34.202Z,82.30
2023-02-03T02:58:14.083Z,82.53
2023-02-03T03:00:41.397Z,82.18
2023-02-03T03:03:15.180Z,82.19
2023-02-03T03:05:43.489Z,82.59
2023-02-03T03:08:12.449Z,82.46
2023-02-03T03:10:41.852Z,82.79
2023-02-03T03:13:13.416Z,82.16
2023-02-03T03:15:42.272Z,82.31
2023-02-03T03:18:17.903Z,82.52
2023-02-03T03:20:49.957Z,82.41
2023-02-03T03:23:20.245Z,82.40
2023-02-03T03:25:51.799Z,82.22
2023-02-03T03:28:28.382Z,82.31
2023-02-03T03:30:55.129Z,82.21
2023-02-03T03:33:22.917Z,82.24
2023-02-03T03:35:58.020Z,82.52
2023-02-03T03:38:39.676Z,82.54
2023-02-03T03:41:13.777Z,82.37
2023-02-03T03:43:44.961Z,82.13
2023-02-03T03:46:20.947Z,82.29
2023-02-03T03:48:54.911Z,82.27
2023-02-03T03:51:24.214Z,82.52
2023-02-03T03:53:53.630Z,82.25
2023-02-03T03:56:29.245Z,82.40
2023-02-03T03:58:58.507Z,82.52
2023-02-03T04:01:26.420Z,82.71
2023-02-03T04:03:58.419Z,82.93
2023-02-03T04:06:24.977Z,82.59
2023-02-03T04:08:51.485Z,82.75
2023-02-03T04:11:38.068Z,82.74
2023-02-03T04:14:04.890Z,82.96
2023-02-03T04:16:31.403Z,82.72
2023-02-03T04:18:57.949Z,82.69
2023-02-03T04:21:24.496Z,82.73
2023-02-03T04:23:52.235Z,82.72
2023-02-03T04:26:18.746Z,82.94
2023-02-03T04:28:45.341Z,82.81
2023-02-03T04:31:12.000Z,82.60
2023-02-03T04:33:38.702Z,82.53
2023-02-03T04:36:05.499Z,82.58
2023-02-03T04:38:33.232Z,82.51
2023-02-03T04:40:59.727Z,82.85
2023-02-03T04:43:26.264Z,82.84
2023-02-03T04:45:52.764Z,82.87
2023-02-03T04:48:19.271Z,82.50
2023-02-03T04:50:45.769Z,82.30
2023-02-03T04:53:12.977Z,82.81
2023-02-03T04:55:40.512Z,83.15
2023-02-03T04:58:06.974Z,82.86
2023-02-03T05:00:33.448Z,83.42
2023-02-03T05:02:59.937Z,83.27
2023-02-03T05:05:26.473Z,83.28
2023-02-03T05:07:52.996Z,83.46
2023-02-03T05:10:19.573Z,83.08
2023-02-03T05:12:46.029Z,83.54
2023-02-03T05:15:12.599Z,83.03
2023-02-03T05:17:40.214Z,83.15
2023-02-03T05:20:07.915Z,83.56
2023-02-03T05:22:35.648Z,84.03
2023-02-03T05:25:03.203Z,83.62
2023-02-03T05:27:29.743Z,83.56
2023-02-03T05:29:56.495Z,83.61
2023-02-03T05:32:23.043Z,83.59
2023-02-03T05:34:49.523Z,83.80
2023-02-03T05:37:15.996Z,84.07
2023-02-03T05:39:42.514Z,83.75
2023-02-03T05:42:08.999Z,83.87
2023-02-03T05:44:35.655Z,83.59
2023-02-03T05:47:02.154Z,84.01
2023-02-03T05:49:28.693Z,84.03
2023-02-03T05:51:56.017Z,84.61
2023-02-03T05:54:22.992Z,84.27
2023-02-03T05:56:49.442Z,84.73
2023-02-03T05:59:15.966Z,84.57
2023-02-03T06:01:42.576Z,83.66
2023-02-03T06:04:09.359Z,83.71
2023-02-03T06:06:36.753Z,82.73
2023-02-03T06:09:06.625Z,80.04
2023-02-03T06:11:33.563Z,79.88
2023-02-03T06:14:00.867Z,81.13
2023-02-03T06:16:28.879Z,81.55
2023-02-03T06:19:00.780Z,79.75
2023-02-03T06:21:28.125Z,79.97
2023-02-03T06:23:55.956Z,80.08
2023-02-03T06:26:22.655Z,80.92
2023-02-03T06:28:49.182Z,80.27
2023-02-03T06:31:15.791Z,79.30
2023-02-03T06:33:42.582Z,79.57
2023-02-03T06:36:09.424Z,80.01
2023-02-03T06:38:35.919Z,80.75
2023-02-03T06:41:02.447Z,81.07
2023-02-03T06:43:29.023Z,81.46
2023-02-03T06:45:55.579Z,81.94
2023-02-03T06:48:22.102Z,82.02
2023-02-03T06:50:48.937Z,82.09
2023-02-03T06:53:15.598Z,82.18
2023-02-03T06:55:42.352Z,82.44
2023-02-03T06:58:09.073Z,82.61
2023-02-03T07:00:35.686Z,82.92
2023-02-03T07:03:02.925Z,83.06
2023-02-03T07:05:29.746Z,82.94
2023-02-03T07:07:56.260Z,82.87
2023-02-03T07:10:22.884Z,82.96
2023-02-03T07:12:50.911Z,82.73
2023-02-03T07:15:18.055Z,82.99
2023-02-03T07:17:46.912Z,83.24
2023-02-03T07:20:13.389Z,83.07
2023-02-03T07:22:42.400Z,83.23
2023-02-03T07:25:08.860Z,83.29
2023-02-03T07:27:35.312Z,83.90
2023-02-03T07:30:01.899Z,84.28
2023-02-03T07:32:28.375Z,84.43
2023-02-03T07:34:54.848Z,84.09
2023-02-03T07:37:21.394Z,84.38
2023-02-03T07:39:47.866Z,84.53
2023-02-03T07:42:14.371Z,84.45
2023-02-03T07:44:41.041Z,84.39
2023-02-03T07:47:07.527Z,84.57
2023-02-03T07:49:34.053Z,84.87
2023-02-03T07:52:00.781Z,84.58
2023-02-03T07:54:27.383Z,84.49
2023-02-03T07:56:54.478Z,84.44
2023-02-03T07:59:21.380Z,84.40
2023-02-03T08:01:47.968Z,83.95
2023-02-03T08:04:16.553Z,83.92
2023-02-03T08:06:43.906Z,83.96
2023-02-03T08:09:10.482Z,84.16
2023-02-03T08:11:36.972Z,84.00
2023-02-03T08:14:03.569Z,84.57
2023-02-03T08:16:30.393Z,84.73
2023-02-03T08:18:57.819Z,84.49
2023-02-03T08:21:24.385Z,84.37
2023-02-03T08:23:50.894Z,84.44
2023-02-03T08:26:17.486Z,84.73
2023-02-03T08:28:48.918Z,84.57
2023-02-03T08:31:15.861Z,84.60
2023-02-03T08:36:26.626Z,85.48
2023-02-03T08:38:53.791Z,84.77
2023-02-03T08:41:20.562Z,84.94
2023-02-03T08:43:47.159Z,85.49
2023-02-03T08:46:14.265Z,85.23
2023-02-03T08:48:41.121Z,85.26
2023-02-03T08:51:12.927Z,85.71
2023-02-03T08:53:39.862Z,85.33
2023-02-03T08:56:09.415Z,85.41
2023-02-03T08:58:36.719Z,85.26
2023-02-03T09:01:11.389Z,85.54
2023-02-03T09:03:38.988Z,85.27
2023-02-03T09:06:07.125Z,85.08
2023-02-03T09:08:34.029Z,84.85
2023-02-03T09:11:00.619Z,84.52
2023-02-03T09:13:27.304Z,84.28
2023-02-03T09:15:53.893Z,84.09
2023-02-03T09:18:20.504Z,83.90
2023-02-03T09:20:47.068Z,83.91
2023-02-03T09:23:13.707Z,83.73
2023-02-03T09:25:40.302Z,83.96
2023-02-03T09:28:06.995Z,83.89
2023-02-03T09:30:33.635Z,84.14
2023-02-03T09:33:00.358Z,84.27
2023-02-03T09:35:27.325Z,84.22
2023-02-03T09:37:53.930Z,83.72
2023-02-03T09:40:34.003Z,83.94
2023-02-03T09:43:00.606Z,83.55
2023-02-03T09:45:30.021Z,83.28
2023-02-03T09:48:11.339Z,82.93
2023-02-03T09:50:41.200Z,83.23
2023-02-03T09:53:21.100Z,83.49
2023-02-03T09:55:48.274Z,83.26
2023-02-03T09:58:19.557Z,83.31
2023-02-03T10:01:00.247Z,83.40
2023-02-03T10:03:56.287Z,83.70
2023-02-03T10:06:38.026Z,84.12
2023-02-03T10:09:16.988Z,83.45
2023-02-03T10:12:14.163Z,83.57
2023-02-03T10:15:05.529Z,83.03
2023-02-03T10:17:53.270Z,83.40
2023-02-03T10:20:26.940Z,83.44
2023-02-03T10:23:05.483Z,83.27
2023-02-03T10:25:39.099Z,82.91
2023-02-03T10:28:20.553Z,82.93
2023-02-03T10:30:53.638Z,82.87
2023-02-03T10:33:20.678Z,82.54
2023-02-03T10:35:53.175Z,82.81
2023-02-03T10:38:50.259Z,83.21
2023-02-03T10:41:19.318Z,83.40
2023-02-03T10:43:47.458Z,83.26
2023-02-03T10:46:24.069Z,83.69
2023-02-03T10:48:50.794Z,83.19
2023-02-03T10:51:26.417Z,83.65
2023-02-03T10:53:53.780Z,83.60
2023-02-03T10:56:32.905Z,83.78
2023-02-03T10:59:00.931Z,83.88
2023-02-03T11:01:38.898Z,83.88
2023-02-03T11:04:06.554Z,83.88
2023-02-03T11:06:34.112Z,83.44
2023-02-03T11:09:00.729Z,83.09
2023-02-03T11:11:34.094Z,83.36
2023-02-03T11:14:03.677Z,82.91
2023-02-03T11:16:35.221Z,82.79
2023-02-03T11:19:07.430Z,82.99
2023-02-03T11:21:43.981Z,82.04
2023-02-03T11:24:31.774Z,81.94
2023-02-03T11:27:09.542Z,81.83
2023-02-03T11:29:40.243Z,81.38
2023-02-03T11:32:29.761Z,80.76
2023-02-03T11:35:00.965Z,80.67
2023-02-03T11:37:38.678Z,80.60
2023-02-03T11:40:08.136Z,80.76
2023-02-03T11:42:36.747Z,81.09
2023-02-03T11:45:18.191Z,81.80
2023-02-03T11:47:51.655Z,82.01
2023-02-03T11:50:31.948Z,82.38
2023-02-03T11:53:24.055Z,82.57
2023-02-03T11:56:04.564Z,82.67
2023-02-03T11:58:53.333Z,82.58
2023-02-03T12:01:43.351Z,82.56
2023-02-03T12:04:29.541Z,82.78
2023-02-03T12:07:29.782Z,82.49
2023-02-03T12:10:02.625Z,82.63
2023-02-03T12:12:44.459Z,82.60
2023-02-03T12:15:23.086Z,81.66
2023-02-03T12:18:01.573Z,81.29
2023-02-03T12:20:43.270Z,81.07
2023-02-03T12:23:31.415Z,80.12
2023-02-03T12:26:18.038Z,80.10
2023-02-03T12:28:54.597Z,79.89
2023-02-03T12:31:30.287Z,79.92
2023-02-03T12:34:05.764Z,80.10
2023-02-03T12:36:45.819Z,80.15
2023-02-03T12:39:28.409Z,80.18
2023-02-03T12:42:14.318Z,80.40
2023-02-03T12:44:48.185Z,80.35
2023-02-03T12:47:40.215Z,80.48
2023-02-03T12:50:17.863Z,80.53
2023-02-03T12:52:51.583Z,80.75
2023-02-03T12:55:42.737Z,80.03
2023-02-03T12:58:12.375Z,79.84
2023-02-03T13:00:41.984Z,79.79
2023-02-03T13:03:24.323Z,79.96
2023-02-03T13:05:50.982Z,79.41
2023-02-03T13:08:37.804Z,79.23
2023-02-03T13:11:20.599Z,79.89
2023-02-03T13:14:03.631Z,79.37
2023-02-03T13:16:36.070Z,79.36
2023-02-03T13:19:08.205Z,79.73
2023-02-03T13:21:34.809Z,79.91
2023-02-03T13:24:04.405Z,79.66
2023-02-03T13:26:33.673Z,79.88
2023-02-03T13:29:05.905Z,80.09
2023-02-03T13:32:00.408Z,79.41
2023-02-03T13:34:36.871Z,79.94
2023-02-03T13:37:21.744Z,80.18
2023-02-03T13:40:00.177Z,80.44
2023-02-03T13:42:33.010Z,80.71
2023-02-03T13:45:14.925Z,80.93
2023-02-03T13:47:47.206Z,81.39
2023-02-03T13:50:27.773Z,81.84
2023-02-03T13:52:57.160Z,81.89
2023-02-03T13:55:33.045Z,82.60
2023-02-03T13:58:00.284Z,82.64
2023-02-03T14:00:44.866Z,82.89
2023-02-03T14:03:39.450Z,82.52
2023-02-03T14:06:30.576Z,82.75
2023-02-03T14:09:00.316Z,82.58
2023-02-03T14:11:36.123Z,82.56
2023-02-03T14:14:05.620Z,82.67
2023-02-03T14:16:39.424Z,82.25
2023-02-03T14:19:09.512Z,82.00
2023-02-03T14:21:48.434Z,81.90
2023-02-03T14:24:16.827Z,81.21
2023-02-03T14:26:46.013Z,81.46
2023-02-03T14:29:32.444Z,81.29
2023-02-03T14:32:10.797Z,81.13
2023-02-03T14:34:49.980Z,81.00
2023-02-03T14:37:22.271Z,81.09
2023-02-03T14:40:01.231Z,80.89
2023-02-03T14:42:27.735Z,81.43
2023-02-03T14:45:21.978Z,81.28
2023-02-03T14:48:16.480Z,81.46
2023-02-03T14:50:58.964Z,81.06
2023-02-03T14:53:28.452Z,81.42
2023-02-03T14:56:10.623Z,82.22
2023-02-03T14:58:43.053Z,82.08
2023-02-03T15:01:23.426Z,82.47
2023-02-03T15:04:13.227Z,82.33
2023-02-03T15:06:53.773Z,82.78
2023-02-03T15:09:31.456Z,82.85
2023-02-03T15:11:58.078Z,82.93
2023-02-03T15:14:32.726Z,83.02
2023-02-03T15:17:11.510Z,82.74
2023-02-03T15:19:42.823Z,83.11
2023-02-03T15:22:40.262Z,83.02
2023-02-03T15:25:18.141Z,83.16
2023-02-03T15:27:44.812Z,82.88
2023-02-03T15:30:30.603Z,83.11
2023-02-03T15:33:06.897Z,82.63
2023-02-03T15:35:36.716Z,83.02
2023-02-03T15:38:08.403Z,83.18
2023-02-03T15:40:44.220Z,82.97
2023-02-03T15:43:16.715Z,83.13
2023-02-03T15:45:53.770Z,82.99
2023-02-03T15:48:36.887Z,82.97
2023-02-03T15:51:10.675Z,83.11
2023-02-03T15:54:04.598Z,83.18
2023-02-03T15:56:40.953Z,83.00
2023-02-03T15:59:21.278Z,83.32
2023-02-03T16:01:48.299Z,83.17
2023-02-03T16:04:15.961Z,83.17
2023-02-03T16:06:48.087Z,83.30
2023-02-03T16:09:29.456Z,83.51
2023-02-03T16:12:06.979Z,83.51
2023-02-03T16:14:36.315Z,83.71
2023-02-03T17:55:03.801Z,85.34
2023-02-03T17:57:31.148Z,85.91
2023-02-03T17:59:59.444Z,86.02
2023-02-03T18:02:26.145Z,86.19
2023-02-03T18:04:52.744Z,86.33
2023-02-03T18:07:19.294Z,86.49
2023-02-03T18:09:45.891Z,86.67
2023-02-03T18:12:12.469Z,87.00
2023-02-03T18:14:39.090Z,87.08
2023-02-03T18:17:05.697Z,87.28
2023-02-03T18:19:32.410Z,87.23
2023-02-03T18:21:59.977Z,87.33
2023-02-03T18:24:28.714Z,87.44
2023-02-03T18:26:55.760Z,87.18
2023-02-03T18:29:24.327Z,87.30
2023-02-03T18:31:50.966Z,87.27
2023-02-03T18:34:17.708Z,87.13
2023-02-03T18:36:44.890Z,87.02
2023-02-03T18:39:14.362Z,86.97
2023-02-03T18:41:40.978Z,87.62
2023-02-03T18:44:07.649Z,87.30
2023-02-03T18:46:34.428Z,87.39
2023-02-03T18:49:01.193Z,87.37
2023-02-03T18:51:27.821Z,87.34
2023-02-03T18:53:59.507Z,87.29
2023-02-03T18:56:28.180Z,87.33
2023-02-03T18:58:55.124Z,87.51
2023-02-03T19:01:23.972Z,87.59
2023-02-03T19:03:50.899Z,87.74
2023-02-03T19:06:18.492Z,87.31
2023-02-03T19:08:45.709Z,87.12
2023-02-03T19:11:13.442Z,87.30
2023-02-03T19:13:40.691Z,86.96
2023-02-03T19:16:08.530Z,86.91
2023-02-03T19:18:36.221Z,86.68
2023-02-03T19:21:03.016Z,87.55
2023-02-03T19:23:29.977Z,87.44
2023-02-03T19:25:56.681Z,87.30
2023-02-03T19:28:30.455Z,87.00
2023-02-03T19:31:13.510Z,86.96
2023-02-03T19:33:40.155Z,86.98
2023-02-03T19:36:08.076Z,86.98
2023-02-03T19:38:35.347Z,86.86
2023-02-03T19:41:02.557Z,86.74
2023-02-03T19:43:31.173Z,86.73
2023-02-03T19:45:58.504Z,86.83
2023-02-03T19:48:25.166Z,86.41
2023-02-03T19:50:51.746Z,86.65
2023-02-03T19:53:18.866Z,86.85
2023-02-03T19:55:46.675Z,86.75
2023-02-03T19:58:14.074Z,86.78
2023-02-03T20:00:41.403Z,86.79
2023-02-03T20:03:08.009Z,86.96
2023-02-03T20:05:36.102Z,86.98
2023-02-03T20:08:03.895Z,87.04
2023-02-03T20:10:32.532Z,86.76
2023-02-03T20:12:59.402Z,86.71
2023-02-03T20:15:26.923Z,86.89
2023-02-03T20:17:53.601Z,86.48
2023-02-03T20:20:20.943Z,86.69
2023-02-03T20:22:47.962Z,86.32
2023-02-03T20:25:14.689Z,86.73
2023-02-03T20:27:41.338Z,86.53
2023-02-03T20:30:08.879Z,86.37
2023-02-03T20:32:36.410Z,86.28
2023-02-03T20:35:04.567Z,86.65
2023-02-03T20:37:31.122Z,86.00
2023-02-03T20:39:58.042Z,86.32
2023-02-03T20:42:24.650Z,86.32
2023-02-03T20:44:51.208Z,86.18
2023-02-03T20:47:19.207Z,86.56
2023-02-03T20:49:47.871Z,86.15
2023-02-03T20:52:17.574Z,86.12
2023-02-03T20:54:44.623Z,85.50
2023-02-03T20:57:16.604Z,86.12
2023-02-03T20:59:46.671Z,85.87
2023-02-03T21:02:23.137Z,86.24
2023-02-03T21:05:00.325Z,85.38
2023-02-03T21:07:30.641Z,85.65
2023-02-03T21:10:00.376Z,85.78
2023-02-03T21:12:30.081Z,85.75
2023-02-03T21:14:57.181Z,86.15
2023-02-03T21:17:27.403Z,85.91
2023-02-03T21:19:55.048Z,85.74
2023-02-03T21:22:24.774Z,85.65
2023-02-03T21:24:52.377Z,85.59
2023-02-03T21:27:32.626Z,85.24
2023-02-03T21:30:01.597Z,85.25
2023-02-03T21:32:40.196Z,85.54
2023-02-03T21:35:39.376Z,85.47
2023-02-03T21:38:32.178Z,85.71
2023-02-03T21:41:01.251Z,85.52
2023-02-03T21:43:30.278Z,85.56
2023-02-03T21:45:57.054Z,85.64
2023-02-03T21:48:26.841Z,85.61
2023-02-03T21:50:55.619Z,85.50
2023-02-03T21:53:24.601Z,85.53
2023-02-03T21:55:51.158Z,85.37
2023-02-03T21:58:26.132Z,85.31
2023-02-03T22:00:54.254Z,85.38
2023-02-03T22:03:26.702Z,84.96
2023-02-03T22:06:16.292Z,85.50
2023-02-03T22:08:46.157Z,85.59
2023-02-03T22:11:13.515Z,85.23
2023-02-03T22:13:40.234Z,85.46
2023-02-03T22:16:07.469Z,85.49
2023-02-03T22:18:34.060Z,85.43
2023-02-03T22:21:01.057Z,85.39
2023-02-03T22:23:27.732Z,85.41
2023-02-03T22:25:54.278Z,85.21
2023-02-03T22:28:20.950Z,85.17
2023-02-03T22:30:48.223Z,85.57
2023-02-03T22:33:15.096Z,85.04
2023-02-03T22:35:41.678Z,85.26
2023-02-03T22:38:08.244Z,85.58
2023-02-03T22:40:34.829Z,85.20
2023-02-03T22:43:01.390Z,85.32
2023-02-03T22:45:27.953Z,85.42
2023-02-03T22:47:56.528Z,84.88
2023-02-03T22:50:34.690Z,84.96
2023-02-03T22:53:04.155Z,85.15
2023-02-03T22:55:31.635Z,85.26
2023-02-03T22:57:59.203Z,85.36
2023-02-03T23:00:26.565Z,85.10
2023-02-03T23:02:53.805Z,85.29
2023-02-03T23:05:21.479Z,85.09
2023-02-03T23:07:48.763Z,84.88
2023-02-03T23:10:19.326Z,84.70
2023-02-03T23:12:46.499Z,84.75
2023-02-03T23:15:13.761Z,84.92
2023-02-03T23:17:40.909Z,84.73
2023-02-03T23:20:09.389Z,84.74
2023-02-03T23:22:35.957Z,84.73
2023-02-03T23:25:03.162Z,84.66
2023-02-03T23:27:29.828Z,84.96
2023-02-03T23:29:56.443Z,85.12
2023-02-03T23:32:23.232Z,84.51
2023-02-03T23:35:08.007Z,84.81
2023-02-03T23:37:34.654Z,84.78
2023-02-03T23:40:01.210Z,85.15
2023-02-03T23:42:27.729Z,84.73
2023-02-03T23:44:54.382Z,84.92
2023-02-03T23:47:20.937Z,84.85
2023-02-03T23:49:47.465Z,85.05
2023-02-03T23:52:14.126Z,84.59
2023-02-03T23:54:40.707Z,85.20
2023-02-03T23:57:07.333Z,84.84
2023-02-03T23:59:33.913Z,84.96
